createdAt,value
2018-08-13T00:02:22.783Z,48.62
2018-08-13T00:04:51.232Z,48.75
2018-08-13T00:07:19.612Z,49.25
2018-08-13T00:09:47.988Z,49.36
2018-08-13T00:12:16.240Z,49.49
2018-08-13T00:14:44.551Z,50.69
2018-08-13T00:17:12.803Z,50.13
2018-08-13T00:19:41.080Z,50.06
2018-08-13T00:22:09.328Z,49.05
2018-08-13T00:24:37.586Z,50.16
2018-08-13T00:27:05.876Z,49.38
2018-08-13T00:29:34.127Z,48.89
2018-08-13T00:32:02.516Z,49.87
2018-08-13T00:34:30.889Z,50.21
2018-08-13T00:36:59.309Z,49.87
2018-08-13T00:39:27.654Z,50.04
2018-08-13T00:41:56.027Z,49.55
2018-08-13T00:44:25.156Z,50.11
2018-08-13T00:46:53.408Z,49.72
2018-08-13T00:49:21.647Z,50.54
2018-08-13T00:51:49.900Z,50.34
2018-08-13T00:54:18.147Z,50.43
2018-08-13T00:56:46.401Z,50.48
2018-08-13T00:59:14.674Z,50.42
2018-08-13T01:01:42.915Z,49.54
2018-08-13T01:04:11.259Z,50.26
2018-08-13T01:06:39.563Z,49.96
2018-08-13T01:09:08.568Z,50.17
2018-08-13T01:11:36.915Z,49.95
2018-08-13T01:14:05.222Z,50.51
2018-08-13T01:16:33.519Z,50.13
2018-08-13T01:19:01.848Z,50.22
2018-08-13T01:21:30.126Z,49.95
2018-08-13T01:23:58.498Z,50.31
2018-08-13T01:26:26.780Z,50.78
2018-08-13T01:28:55.009Z,49.46
2018-08-13T01:31:23.317Z,49.49
2018-08-13T01:33:51.572Z,50.46
2018-08-13T01:36:19.936Z,50.65
2018-08-13T01:38:48.254Z,50.35
2018-08-13T01:41:16.578Z,49.91
2018-08-13T01:43:44.913Z,50.63
2018-08-13T01:46:13.308Z,50.18
2018-08-13T01:48:41.871Z,50.82
2018-08-13T01:51:10.100Z,49.59
2018-08-13T01:53:38.402Z,49.30
2018-08-13T01:56:06.643Z,49.90
2018-08-13T01:58:35.063Z,49.70
2018-08-13T02:01:03.315Z,48.67
2018-08-13T02:03:31.562Z,48.49
2018-08-13T02:05:59.901Z,47.87
2018-08-13T02:08:28.132Z,47.83
2018-08-13T02:10:56.376Z,47.22
2018-08-13T02:13:24.615Z,47.09
2018-08-13T02:15:52.867Z,47.22
2018-08-13T02:18:21.102Z,46.43
2018-08-13T02:20:49.338Z,45.98
2018-08-13T02:23:17.605Z,46.39
2018-08-13T02:25:46.026Z,44.98
2018-08-13T02:28:14.286Z,46.28
2018-08-13T02:30:42.517Z,45.68
2018-08-13T02:33:10.764Z,46.46
2018-08-13T02:35:38.991Z,46.43
2018-08-13T02:38:07.283Z,45.41
2018-08-13T02:40:35.535Z,46.72
2018-08-13T02:43:03.783Z,46.16
2018-08-13T02:45:32.028Z,46.54
2018-08-13T02:48:00.279Z,45.77
2018-08-13T02:50:28.516Z,46.15
2018-08-13T02:52:56.759Z,45.85
2018-08-13T02:55:24.983Z,45.23
2018-08-13T02:57:53.214Z,46.36
2018-08-13T03:00:30.788Z,45.88
2018-08-13T03:02:59.032Z,44.51
2018-08-13T03:05:27.362Z,44.11
2018-08-13T03:07:55.763Z,45.20
2018-08-13T03:10:24.012Z,45.19
2018-08-13T03:12:52.395Z,43.74
2018-08-13T03:15:20.767Z,43.36
2018-08-13T03:17:49.134Z,41.14
2018-08-13T03:20:17.450Z,38.69
2018-08-13T03:22:45.682Z,37.93
2018-08-13T03:25:13.950Z,37.29
2018-08-13T03:27:42.195Z,36.40
2018-08-13T03:30:11.732Z,36.39
2018-08-13T03:32:40.243Z,35.91
2018-08-13T03:35:08.904Z,36.61
2018-08-13T03:37:37.295Z,36.34
2018-08-13T03:40:08.059Z,36.53
2018-08-13T03:42:36.278Z,35.40
2018-08-13T03:45:06.351Z,35.74
2018-08-13T03:47:34.714Z,35.48
2018-08-13T03:50:03.007Z,35.05
2018-08-13T03:52:31.314Z,34.83
2018-08-13T03:54:59.673Z,34.60
2018-08-13T03:57:27.898Z,34.85
2018-08-13T03:59:56.255Z,34.92
2018-08-13T04:02:24.582Z,34.69
2018-08-13T04:04:52.812Z,34.33
2018-08-13T04:07:21.048Z,35.11
2018-08-13T04:09:49.275Z,35.03
2018-08-13T04:12:17.514Z,35.13
2018-08-13T04:14:45.743Z,34.87
2018-08-13T04:17:13.983Z,34.80
2018-08-13T04:19:43.206Z,34.99
2018-08-13T04:22:11.450Z,35.25
2018-08-13T04:24:39.695Z,34.56
2018-08-13T04:27:07.948Z,33.77
2018-08-13T04:29:36.180Z,33.67
2018-08-13T04:32:04.432Z,34.36
2018-08-13T04:34:32.663Z,33.79
2018-08-13T04:37:00.971Z,33.89
2018-08-13T04:39:29.290Z,33.93
2018-08-13T04:41:57.610Z,35.24
2018-08-13T04:44:25.893Z,35.95
2018-08-13T04:46:54.132Z,37.00
2018-08-13T04:49:22.399Z,36.67
2018-08-13T04:51:50.644Z,36.78
2018-08-13T04:54:19.015Z,37.13
2018-08-13T04:56:47.242Z,37.77
2018-08-13T04:59:15.609Z,37.04
2018-08-13T05:01:43.927Z,37.34
2018-08-13T05:04:12.177Z,36.33
2018-08-13T05:06:40.467Z,35.00
2018-08-13T05:09:09.508Z,34.61
2018-08-13T05:11:38.046Z,33.57
2018-08-13T05:14:06.300Z,33.74
2018-08-13T05:16:34.640Z,33.14
2018-08-13T05:19:02.922Z,33.00
2018-08-13T05:21:31.246Z,33.07
2018-08-13T05:23:59.603Z,32.57
2018-08-13T05:26:27.876Z,32.82
2018-08-13T05:28:57.131Z,32.56
2018-08-13T05:31:25.404Z,31.70
2018-08-13T05:33:53.638Z,32.46
2018-08-13T05:36:21.879Z,32.44
2018-08-13T05:38:50.146Z,30.57
2018-08-13T05:41:18.659Z,31.30
2018-08-13T05:43:46.931Z,32.04
2018-08-13T05:46:15.215Z,31.29
2018-08-13T05:48:43.519Z,30.97
2018-08-13T05:51:12.778Z,31.91
2018-08-13T05:53:41.035Z,31.90
2018-08-13T05:56:10.974Z,31.02
2018-08-13T05:58:39.441Z,31.06
2018-08-13T06:01:08.012Z,30.62
2018-08-13T06:03:36.410Z,30.86
2018-08-13T06:06:04.659Z,31.13
2018-08-13T06:08:32.895Z,31.66
2018-08-13T06:11:01.159Z,33.13
2018-08-13T06:13:29.535Z,34.05
2018-08-13T06:15:57.898Z,34.23
2018-08-13T06:18:26.308Z,34.28
2018-08-13T06:20:54.709Z,34.69
2018-08-13T06:23:23.069Z,34.14
2018-08-13T06:25:51.455Z,33.64
2018-08-13T06:28:19.850Z,32.93
2018-08-13T06:30:48.252Z,33.43
2018-08-13T06:33:16.628Z,32.51
2018-08-13T06:35:44.990Z,32.73
2018-08-13T06:38:13.234Z,33.26
2018-08-13T06:40:41.482Z,34.35
2018-08-13T06:43:09.886Z,35.14
2018-08-13T06:45:38.234Z,35.38
2018-08-13T06:48:06.867Z,35.19
2018-08-13T06:50:35.215Z,35.69
2018-08-13T06:53:03.612Z,36.57
2018-08-13T06:55:31.983Z,36.61
2018-08-13T06:58:00.386Z,36.50
2018-08-13T07:00:28.835Z,37.69
2018-08-13T07:02:57.112Z,41.46
2018-08-13T07:05:25.512Z,44.22
2018-08-13T07:07:53.923Z,48.50
2018-08-13T07:10:22.326Z,52.22
2018-08-13T07:12:50.632Z,54.73
2018-08-13T07:15:18.895Z,57.39
2018-08-13T07:17:47.194Z,61.10
2018-08-13T07:20:16.770Z,62.68
2018-08-13T07:22:45.182Z,63.61
2018-08-13T07:25:13.455Z,62.57
2018-08-13T07:27:42.269Z,63.90
2018-08-13T07:30:12.619Z,64.54
2018-08-13T07:32:41.134Z,65.52
2018-08-13T07:35:09.711Z,67.18
2018-08-13T07:37:38.073Z,68.74
2018-08-13T07:40:08.653Z,68.93
2018-08-13T07:42:37.017Z,69.28
2018-08-13T07:45:06.257Z,68.47
2018-08-13T07:47:35.000Z,68.73
2018-08-13T07:50:03.637Z,68.18
2018-08-13T07:52:31.979Z,67.32
2018-08-13T07:55:00.615Z,67.54
2018-08-13T07:57:29.208Z,67.48
2018-08-13T07:59:57.584Z,69.35
2018-08-13T08:02:26.022Z,69.12
2018-08-13T08:04:54.323Z,70.57
2018-08-13T08:07:22.818Z,69.79
2018-08-13T08:09:51.293Z,69.28
2018-08-13T08:12:19.839Z,66.98
2018-08-13T08:14:48.342Z,67.30
2018-08-13T08:17:16.731Z,66.11
2018-08-13T08:19:45.191Z,66.48
2018-08-13T08:22:14.787Z,65.85
2018-08-13T08:24:43.254Z,67.22
2018-08-13T08:27:11.663Z,67.84
2018-08-13T08:29:40.081Z,65.57
2018-08-13T08:32:08.514Z,66.84
2018-08-13T08:34:36.875Z,66.55
2018-08-13T08:37:05.208Z,66.49
2018-08-13T08:39:33.490Z,66.52
2018-08-13T08:42:01.795Z,67.95
2018-08-13T08:44:30.088Z,65.72
2018-08-13T08:46:58.443Z,66.45
2018-08-13T08:49:26.726Z,67.97
2018-08-13T08:51:55.068Z,66.32
2018-08-13T08:54:23.372Z,66.34
2018-08-13T08:56:51.714Z,66.48
2018-08-13T08:59:20.020Z,65.87
2018-08-13T09:01:48.396Z,65.25
2018-08-13T09:04:17.728Z,64.47
2018-08-13T09:06:46.062Z,66.33
2018-08-13T09:09:15.607Z,63.38
2018-08-13T09:11:44.083Z,63.89
2018-08-13T09:14:12.537Z,64.16
2018-08-13T09:16:42.928Z,63.91
2018-08-13T09:19:23.088Z,66.43
2018-08-13T09:21:54.491Z,66.99
2018-08-13T09:24:34.107Z,68.80
2018-08-13T09:27:13.886Z,68.32
2018-08-13T09:29:53.611Z,68.75
2018-08-13T09:32:34.403Z,67.05
2018-08-13T09:35:33.966Z,67.66
2018-08-13T09:38:02.493Z,67.40
2018-08-13T09:40:32.000Z,69.17
2018-08-13T09:43:00.477Z,69.31
2018-08-13T09:45:28.871Z,67.77
2018-08-13T09:47:57.261Z,68.41
2018-08-13T09:50:26.356Z,67.71
2018-08-13T09:52:54.815Z,69.70
2018-08-13T09:55:23.204Z,67.15
2018-08-13T09:57:52.688Z,67.45
2018-08-13T10:00:28.326Z,69.40
2018-08-13T10:02:56.770Z,66.60
2018-08-13T10:05:25.155Z,65.54
2018-08-13T10:07:53.556Z,65.40
2018-08-13T10:10:21.950Z,65.65
2018-08-13T10:12:50.379Z,63.14
2018-08-13T10:15:18.810Z,63.65
2018-08-13T10:17:47.208Z,64.63
2018-08-13T10:20:17.614Z,65.67
2018-08-13T10:22:46.132Z,64.78
2018-08-13T10:25:14.691Z,62.63
2018-08-13T10:27:43.207Z,62.67
2018-08-13T10:30:12.977Z,61.98
2018-08-13T10:32:41.716Z,62.30
2018-08-13T10:35:10.413Z,60.50
2018-08-13T10:37:39.498Z,61.31
2018-08-13T10:40:12.292Z,61.38
2018-08-13T10:42:40.772Z,60.32
2018-08-13T10:45:09.183Z,60.19
2018-08-13T10:47:45.013Z,60.23
2018-08-13T10:50:14.396Z,60.40
2018-08-13T10:52:42.848Z,63.01
2018-08-13T10:55:12.522Z,59.90
2018-08-13T10:57:41.127Z,60.37
2018-08-13T11:00:11.271Z,59.37
2018-08-13T11:02:39.723Z,58.82
2018-08-13T11:05:09.446Z,58.91
2018-08-13T11:07:37.976Z,56.24
2018-08-13T11:10:08.322Z,57.97
2018-08-13T11:12:36.887Z,58.76
2018-08-13T11:15:08.341Z,58.79
2018-08-13T11:17:36.679Z,51.92
2018-08-13T11:20:05.422Z,50.40
2018-08-13T11:22:33.855Z,49.55
2018-08-13T11:25:02.244Z,52.83
2018-08-13T11:27:30.608Z,54.90
2018-08-13T11:29:59.079Z,57.56
2018-08-13T11:32:30.280Z,57.96
2018-08-13T11:34:58.659Z,58.69
2018-08-13T11:37:27.052Z,60.47
2018-08-13T11:42:22.902Z,61.84
2018-08-13T11:44:51.277Z,64.48
2018-08-13T11:47:19.691Z,64.81
2018-08-13T11:49:48.123Z,63.97
2018-08-13T11:52:16.548Z,64.87
2018-08-13T11:54:45.155Z,63.13
2018-08-13T11:57:13.559Z,61.40
2018-08-13T11:59:41.994Z,60.04
2018-08-13T12:02:10.578Z,59.05
2018-08-13T12:04:38.909Z,59.02
2018-08-13T12:07:07.436Z,61.10
2018-08-13T12:09:35.960Z,60.94
2018-08-13T12:12:04.378Z,62.43
2018-08-13T12:14:32.751Z,61.54
2018-08-13T12:17:01.235Z,61.72
2018-08-13T12:19:29.683Z,62.60
2018-08-13T12:21:58.066Z,63.87
2018-08-13T12:24:26.526Z,63.93
2018-08-13T12:26:54.920Z,65.56
2018-08-13T12:29:23.312Z,64.76
2018-08-13T12:31:51.736Z,66.53
2018-08-13T12:34:20.187Z,65.42
2018-08-13T12:36:48.645Z,65.04
2018-08-13T12:39:17.099Z,65.19
2018-08-13T12:41:45.451Z,65.01
2018-08-13T12:44:13.838Z,66.31
2018-08-13T12:46:42.293Z,66.73
2018-08-13T12:49:10.754Z,66.12
2018-08-13T12:51:39.207Z,66.03
2018-08-13T12:54:07.620Z,64.90
2018-08-13T12:56:36.004Z,67.09
2018-08-13T12:59:04.361Z,67.27
2018-08-13T13:01:32.850Z,68.29
2018-08-13T13:04:01.196Z,67.22
2018-08-13T13:06:29.568Z,66.04
2018-08-13T13:08:58.005Z,65.61
2018-08-13T13:11:26.361Z,65.16
2018-08-13T13:13:55.050Z,69.40
2018-08-13T13:16:23.616Z,70.26
2018-08-13T13:18:53.321Z,69.43
2018-08-13T13:21:21.727Z,69.13
2018-08-13T13:23:50.122Z,71.73
2018-08-13T13:26:18.583Z,70.49
2018-08-13T13:28:47.052Z,71.94
2018-08-13T13:31:15.430Z,71.54
2018-08-13T13:33:43.986Z,71.79
2018-08-13T13:36:12.324Z,72.78
2018-08-13T13:38:40.711Z,74.00
2018-08-13T13:41:09.020Z,72.13
2018-08-13T13:43:37.394Z,73.75
2018-08-13T13:46:08.973Z,72.28
2018-08-13T13:48:37.384Z,71.70
2018-08-13T13:51:05.743Z,71.94
2018-08-13T13:53:34.527Z,69.79
2018-08-13T13:56:03.818Z,69.56
2018-08-13T13:58:32.689Z,69.10
2018-08-13T14:01:01.492Z,67.99
2018-08-13T14:06:10.597Z,66.68
2018-08-13T14:08:39.177Z,67.67
2018-08-13T14:11:07.724Z,64.91
2018-08-13T14:13:36.167Z,64.49
2018-08-13T14:16:04.676Z,65.01
2018-08-13T14:18:33.252Z,63.00
2018-08-13T14:21:01.744Z,62.27
2018-08-13T14:23:30.158Z,63.30
2018-08-13T14:25:58.722Z,63.09
2018-08-13T14:28:27.290Z,63.42
2018-08-13T14:30:55.687Z,62.27
2018-08-13T14:33:24.168Z,62.47
2018-08-13T14:35:52.762Z,63.07
2018-08-13T14:38:21.181Z,61.61
2018-08-13T14:40:49.916Z,59.74
2018-08-13T14:43:18.369Z,59.58
2018-08-13T14:45:47.168Z,60.69
2018-08-13T14:48:16.067Z,60.53
2018-08-13T14:50:44.612Z,58.63
2018-08-13T14:53:13.031Z,58.09
2018-08-13T14:55:41.594Z,59.76
2018-08-13T14:58:11.216Z,59.64
2018-08-13T15:00:40.735Z,61.47
2018-08-13T15:03:11.148Z,63.05
2018-08-13T15:05:41.036Z,66.12
2018-08-13T15:08:09.380Z,65.47
2018-08-13T15:10:37.831Z,66.87
2018-08-13T15:13:06.520Z,71.04
2018-08-13T15:15:34.904Z,69.00
2018-08-13T15:18:03.670Z,71.86
2018-08-13T15:20:32.764Z,71.69
2018-08-13T15:23:01.338Z,70.44
2018-08-13T15:25:30.113Z,69.30
2018-08-13T15:27:58.658Z,68.00
2018-08-13T15:30:27.639Z,68.25
2018-08-13T15:32:56.170Z,68.80
2018-08-13T15:35:24.646Z,67.46
2018-08-13T15:37:52.978Z,66.10
2018-08-13T15:40:21.584Z,66.16
2018-08-13T15:42:50.119Z,65.77
2018-08-13T15:45:21.166Z,66.39
2018-08-13T15:47:50.106Z,66.68
2018-08-13T15:50:19.919Z,68.79
2018-08-13T15:52:48.662Z,67.55
2018-08-13T15:55:17.159Z,68.68
2018-08-13T15:57:45.975Z,69.53
2018-08-13T16:00:25.095Z,70.08
2018-08-13T16:02:53.707Z,69.40
2018-08-13T16:05:22.438Z,69.24
2018-08-13T16:07:51.259Z,67.39
2018-08-13T16:10:19.978Z,67.87
2018-08-13T16:12:48.585Z,70.45
2018-08-13T16:15:17.224Z,69.83
2018-08-13T16:17:47.830Z,68.99
2018-08-13T16:20:17.901Z,65.24
2018-08-13T16:22:46.873Z,65.62
2018-08-13T16:25:16.001Z,65.29
2018-08-13T16:27:44.887Z,64.11
2018-08-13T16:30:17.455Z,66.14
2018-08-13T16:32:47.918Z,64.42
2018-08-13T16:35:16.932Z,63.68
2018-08-13T16:37:45.614Z,66.85
2018-08-13T16:40:14.376Z,66.10
2018-08-13T16:42:42.827Z,67.18
2018-08-13T16:45:12.361Z,67.63
2018-08-13T16:47:40.760Z,67.19
2018-08-13T16:50:15.837Z,65.74
2018-08-13T16:52:44.360Z,67.39
2018-08-13T16:55:13.465Z,66.70
2018-08-13T16:57:42.654Z,66.31
2018-08-13T17:00:12.875Z,67.28
2018-08-13T17:02:41.453Z,67.39
2018-08-13T17:05:11.367Z,66.32
2018-08-13T17:07:41.251Z,69.15
2018-08-13T17:10:12.738Z,68.50
2018-08-13T17:12:41.309Z,68.69
2018-08-13T17:15:10.269Z,67.46
2018-08-13T17:17:38.783Z,67.54
2018-08-13T17:20:08.875Z,67.89
2018-08-13T17:22:37.590Z,65.44
2018-08-13T17:25:08.375Z,65.59
2018-08-13T17:27:37.004Z,65.42
2018-08-13T17:30:08.636Z,65.72
2018-08-13T17:32:37.108Z,64.18
2018-08-13T17:35:05.545Z,65.91
2018-08-13T17:37:33.985Z,66.68
2018-08-13T17:40:02.423Z,65.42
2018-08-13T17:42:30.876Z,66.72
2018-08-13T17:44:59.694Z,64.54
2018-08-13T17:47:28.174Z,65.40
2018-08-13T17:49:56.648Z,66.79
2018-08-13T17:52:25.510Z,64.78
2018-08-13T17:54:54.049Z,63.83
2018-08-13T17:57:22.523Z,64.38
2018-08-13T17:59:50.956Z,65.51
2018-08-13T18:02:19.514Z,66.04
2018-08-13T18:04:47.922Z,65.18
2018-08-13T18:07:16.412Z,66.03
2018-08-13T18:09:44.939Z,65.13
2018-08-13T18:12:13.637Z,65.17
2018-08-13T18:14:42.146Z,66.43
2018-08-13T18:17:10.793Z,68.16
2018-08-13T18:19:39.209Z,67.87
2018-08-13T18:22:10.656Z,66.42
2018-08-13T18:24:39.219Z,67.67
2018-08-13T18:27:08.129Z,70.14
2018-08-13T18:29:36.690Z,68.14
2018-08-13T18:32:05.478Z,69.64
2018-08-13T18:34:33.876Z,68.95
2018-08-13T18:37:02.324Z,66.04
2018-08-13T18:39:30.791Z,67.57
2018-08-13T18:41:59.172Z,66.58
2018-08-13T18:44:27.687Z,67.27
2018-08-13T18:46:56.259Z,68.72
2018-08-13T18:49:24.618Z,68.06
2018-08-13T18:51:52.987Z,69.00
2018-08-13T18:54:21.606Z,69.40
2018-08-13T18:56:50.126Z,67.82
2018-08-13T18:59:18.815Z,68.47
2018-08-13T19:01:47.274Z,69.61
2018-08-13T19:04:16.807Z,70.29
2018-08-13T19:06:45.375Z,73.00
2018-08-13T19:09:13.863Z,72.11
2018-08-13T19:11:42.464Z,71.64
2018-08-13T19:14:10.886Z,71.90
2018-08-13T19:16:39.212Z,72.26
2018-08-13T19:19:07.558Z,71.08
2018-08-13T19:21:36.193Z,70.66
2018-08-13T19:24:10.861Z,69.39
2018-08-13T19:26:39.315Z,69.42
2018-08-13T19:29:07.852Z,69.37
2018-08-13T19:31:36.201Z,67.29
2018-08-13T19:34:04.639Z,67.88
2018-08-13T19:36:33.032Z,67.90
2018-08-13T19:39:01.468Z,67.67
2018-08-13T19:41:29.928Z,67.60
2018-08-13T19:43:58.351Z,69.94
2018-08-13T19:46:26.789Z,69.08
2018-08-13T19:48:55.173Z,68.20
2018-08-13T19:51:23.508Z,66.90
2018-08-13T19:53:51.999Z,68.71
2018-08-13T19:56:20.453Z,69.69
2018-08-13T19:58:48.844Z,68.52
2018-08-13T20:01:17.247Z,68.20
2018-08-13T20:03:45.650Z,68.83
2018-08-13T20:06:14.135Z,68.50
2018-08-13T20:08:42.927Z,69.63
2018-08-13T20:11:11.639Z,66.84
2018-08-13T20:13:40.107Z,68.84
2018-08-13T20:16:09.440Z,70.05
2018-08-13T20:18:37.887Z,72.18
2018-08-13T20:21:06.547Z,70.66
2018-08-13T20:23:36.590Z,69.54
2018-08-13T20:26:05.074Z,69.91
2018-08-13T20:28:33.616Z,70.22
2018-08-13T20:31:02.005Z,69.24
2018-08-13T20:33:30.399Z,71.44
2018-08-13T20:35:59.540Z,69.88
2018-08-13T20:38:27.975Z,68.81
2018-08-13T20:40:56.407Z,68.85
2018-08-13T20:43:24.774Z,69.79
2018-08-13T20:45:53.187Z,69.61
2018-08-13T20:48:21.762Z,68.71
2018-08-13T20:50:50.202Z,69.31
2018-08-13T20:53:18.438Z,68.47
2018-08-13T20:55:46.875Z,69.87
2018-08-13T20:58:15.309Z,70.45
2018-08-13T21:00:43.675Z,69.17
2018-08-13T21:03:12.120Z,69.22
2018-08-13T21:05:40.566Z,69.18
2018-08-13T21:08:09.144Z,69.02
2018-08-13T21:10:37.558Z,68.83
2018-08-13T21:13:05.995Z,68.83
2018-08-13T21:15:34.364Z,68.82
2018-08-13T21:18:02.815Z,69.05
2018-08-13T21:20:31.191Z,71.79
2018-08-13T21:22:59.662Z,72.30
2018-08-13T21:25:28.368Z,72.51
2018-08-13T21:27:56.790Z,71.89
2018-08-13T21:30:25.235Z,74.01
2018-08-13T21:32:53.670Z,71.68
2018-08-13T21:35:23.545Z,69.19
2018-08-13T21:37:52.410Z,68.94
2018-08-13T21:40:21.110Z,68.81
2018-08-13T21:42:50.256Z,69.67
2018-08-13T21:45:24.807Z,70.23
2018-08-13T21:47:53.148Z,70.14
2018-08-13T21:50:22.535Z,69.82
2018-08-13T21:52:51.496Z,68.96
2018-08-13T21:55:20.265Z,68.75
2018-08-13T21:57:48.625Z,69.69
2018-08-13T22:00:21.522Z,69.04
2018-08-13T22:02:49.932Z,68.27
2018-08-13T22:05:18.288Z,68.62
2018-08-13T22:07:46.917Z,69.40
2018-08-13T22:10:15.306Z,68.32
2018-08-13T22:12:43.726Z,68.10
2018-08-13T22:15:20.348Z,68.83
2018-08-13T22:17:48.769Z,67.87
2018-08-13T22:20:17.120Z,69.97
2018-08-13T22:22:45.562Z,71.04
2018-08-13T22:25:17.097Z,71.99
2018-08-13T22:27:45.620Z,72.18
2018-08-13T22:30:14.035Z,73.66
2018-08-13T22:32:42.423Z,74.75
2018-08-13T22:35:11.231Z,74.70
2018-08-13T22:37:40.873Z,75.09
2018-08-13T22:40:13.643Z,74.07
2018-08-13T22:42:42.943Z,73.96
2018-08-13T22:45:11.411Z,73.24
2018-08-13T22:47:40.636Z,73.38
2018-08-13T22:50:10.256Z,73.00
2018-08-13T22:52:38.659Z,74.44
2018-08-13T22:55:08.851Z,73.83
2018-08-13T22:57:37.430Z,73.80
2018-08-13T23:00:09.744Z,72.72
2018-08-13T23:02:38.131Z,71.96
2018-08-13T23:05:09.150Z,72.09
2018-08-13T23:07:38.134Z,73.53
2018-08-13T23:10:07.033Z,71.85
2018-08-13T23:12:35.510Z,74.04
2018-08-13T23:15:04.080Z,75.38
2018-08-13T23:17:32.492Z,74.87
2018-08-13T23:20:01.018Z,72.61
2018-08-13T23:22:44.031Z,69.77
2018-08-13T23:25:12.435Z,73.10
2018-08-13T23:27:41.294Z,72.04
2018-08-13T23:30:09.806Z,73.38
2018-08-13T23:32:38.251Z,74.52
2018-08-13T23:35:06.627Z,74.38
2018-08-13T23:37:35.035Z,72.82
2018-08-13T23:40:03.431Z,71.96
2018-08-13T23:42:31.864Z,73.18
2018-08-13T23:45:00.231Z,70.56
2018-08-13T23:47:29.835Z,70.38
2018-08-13T23:49:58.258Z,70.97
2018-08-13T23:52:26.639Z,72.35
2018-08-13T23:54:55.051Z,71.36
2018-08-13T23:57:24.504Z,71.09
2018-08-13T23:59:53.168Z,73.88
